Main page
Satellite images 15-day forecastsClimateMarine weather Cyclones Lightning AirportsFAQ Newsletter About
Weather : Europe Africa North America South America Asia Australia-Oceania Others
Languages Contact

Hanover, Germany

Langenhagen

latitude: 52-28N, longitude: 009-41E, elevation: 56 m


METAR: EDDV 272020Z 10008KT CAVOK 02/00 Q1012 NOSIG
TAF: EDDV 271700Z 2718/2818 10010KT CAVOK BECMG 2721/2724 BKN012 TEMPO 2800/2809 BKN008 BECMG 2809/2811 10015G25KT SCT020

Time: 21:33 (20:33 UTC)

Current weather observation

The report was made 13 minutes ago, at 20:20 UTC
Wind 8 kt from the East
Temperature 2°C
Humidity 87%
Pressure 1012 hPa
Visibility 10 km or more
no clouds below 1500 m and no cumulonimbus

Change units

Forecast

The report was made 3 hours and 33 minutes ago, at 17:00 UTC
Forecast valid from 27 at 18 UTC to 28 at 18 UTC
Wind 10 kt from the East
Visibility 10 km or more
no clouds below 1500 m and no cumulonimbus
Becoming
from 27 at 21 UTC to 27 at 24 UTC
Broken clouds at a height of 1200 ft
Temporary
from 28 at 00 UTC to 28 at 09 UTC
Broken clouds at a height of 800 ft
Becoming
from 28 at 09 UTC to 28 at 11 UTC
Wind 15 kt from the East with gusts up to 25 kt
Scattered clouds at a height of 2000 ft
The information on this site is subject to a disclaimer
Weather : Europe Africa North America South America Asia Australia-Oceania Others
Satellite images 15-day forecastsClimateMarine weather Cyclones Lightning AirportsFAQ Languages Contact Newsletter About